createdAt,value
2023-01-15T00:05:03.672Z,3.20
2023-01-15T00:10:07.944Z,3.20
2023-01-15T00:15:14.795Z,2.40
2023-01-15T00:20:18.489Z,2.80
2023-01-15T00:25:43.824Z,2.63
2023-01-15T00:30:49.666Z,2.60
2023-01-15T00:35:58.895Z,2.90
2023-01-15T00:41:03.381Z,3.10
2023-01-15T00:46:09.371Z,3.37
2023-01-15T00:51:17.043Z,3.63
2023-01-15T00:56:23.797Z,3.17
2023-01-15T01:01:27.746Z,2.90
2023-01-15T01:06:31.989Z,2.87
2023-01-15T01:11:39.720Z,3.03
2023-01-15T01:16:43.604Z,2.50
2023-01-15T01:21:48.320Z,2.63
2023-01-15T01:26:54.956Z,2.60
2023-01-15T01:31:58.489Z,2.47
2023-01-15T01:37:02.393Z,2.17
2023-01-15T01:42:16.919Z,1.70
2023-01-15T01:47:27.797Z,1.60
2023-01-15T01:52:38.868Z,2.07
2023-01-15T01:57:45.733Z,2.30
2023-01-15T02:02:51.459Z,2.27
2023-01-15T02:07:55.600Z,1.80
2023-01-15T02:13:15.512Z,2.67
2023-01-15T02:18:43.129Z,2.57
2023-01-15T02:23:56.892Z,3.90
2023-01-15T02:29:02.966Z,2.57
2023-01-15T02:34:21.247Z,2.60
2023-01-15T02:39:31.354Z,1.50
2023-01-15T02:44:48.788Z,1.97
2023-01-15T02:49:56.618Z,1.90
2023-01-15T02:55:09.497Z,1.43
2023-01-15T03:00:20.815Z,1.53
2023-01-15T03:05:33.387Z,1.73
2023-01-15T03:10:50.487Z,2.23
2023-01-15T03:16:41.196Z,1.67
2023-01-15T03:22:19.268Z,1.50
2023-01-15T03:27:25.842Z,2.33
2023-01-15T03:32:33.948Z,1.70
2023-01-15T03:37:37.616Z,1.80
2023-01-15T03:43:22.566Z,1.60
2023-01-15T03:48:36.403Z,1.43
2023-01-15T03:53:50.188Z,1.70
2023-01-15T03:59:13.021Z,1.70
2023-01-15T04:04:19.768Z,2.83
2023-01-15T04:09:26.397Z,2.20
2023-01-15T04:14:37.744Z,2.07
2023-01-15T04:19:41.726Z,1.63
2023-01-15T04:24:50.022Z,2.47
2023-01-15T04:29:56.409Z,2.57
2023-01-15T04:35:02.686Z,1.53
2023-01-15T04:40:07.307Z,1.57
2023-01-15T04:45:13.132Z,2.03
2023-01-15T04:50:18.663Z,2.17
2023-01-15T04:55:23.838Z,2.50
2023-01-15T05:00:29.931Z,2.00
2023-01-15T05:05:39.508Z,1.67
2023-01-15T05:10:44.790Z,2.17
2023-01-15T05:15:49.428Z,1.60
2023-01-15T05:20:56.523Z,1.43
2023-01-15T05:26:03.086Z,2.10
2023-01-15T05:31:21.648Z,1.80
2023-01-15T05:36:28.142Z,1.83
2023-01-15T05:41:54.875Z,1.53
2023-01-15T05:47:04.453Z,1.50
2023-01-15T05:52:09.108Z,1.57
2023-01-15T05:57:14.130Z,1.43
2023-01-15T06:02:17.730Z,1.80
2023-01-15T06:07:20.969Z,1.70
2023-01-15T06:12:24.714Z,1.50
2023-01-15T06:17:28.359Z,1.90
2023-01-15T06:22:31.850Z,1.70
2023-01-15T06:27:35.383Z,1.80
2023-01-15T06:32:38.827Z,2.20
2023-01-15T06:37:42.436Z,2.67
2023-01-15T06:43:03.904Z,2.00
2023-01-15T06:48:16.643Z,2.43
2023-01-15T06:53:20.589Z,1.73
2023-01-15T06:58:26.470Z,2.33
2023-01-15T07:03:30.166Z,2.77
2023-01-15T07:08:33.793Z,3.03
2023-01-15T07:13:38.171Z,3.27
2023-01-15T07:18:41.721Z,2.73
2023-01-15T07:23:46.198Z,3.33
2023-01-15T07:28:49.440Z,3.27
2023-01-15T07:33:53.116Z,3.17
2023-01-15T07:38:56.358Z,3.97
2023-01-15T07:44:18.209Z,3.00
2023-01-15T07:49:40.005Z,3.60
2023-01-15T07:54:44.117Z,4.63
2023-01-15T07:59:48.097Z,5.37
2023-01-15T08:04:51.635Z,3.83
2023-01-15T08:09:55.219Z,5.87
2023-01-15T08:15:13.747Z,5.37
2023-01-15T08:20:23.803Z,4.60
2023-01-15T08:25:27.536Z,4.97
2023-01-15T08:30:31.007Z,4.93
2023-01-15T08:35:34.912Z,4.97
2023-01-15T08:40:59.166Z,4.40
2023-01-15T08:46:05.520Z,4.20
2023-01-15T08:51:10.704Z,4.13
2023-01-15T08:56:19.277Z,3.93
2023-01-15T09:01:22.571Z,4.93
2023-01-15T09:06:26.626Z,3.93
2023-01-15T09:11:30.434Z,4.30
2023-01-15T09:16:34.376Z,4.67
2023-01-15T09:21:37.698Z,3.53
2023-01-15T09:26:42.076Z,3.30
2023-01-15T09:31:45.252Z,3.60
2023-01-15T09:36:48.757Z,3.90
2023-01-15T09:42:07.685Z,4.37
2023-01-15T09:47:46.630Z,3.73
2023-01-15T09:53:26.520Z,4.40
2023-01-15T09:58:38.111Z,3.63
2023-01-15T10:03:49.999Z,3.50
2023-01-15T10:09:11.300Z,4.33
2023-01-15T10:14:24.829Z,4.23
2023-01-15T10:19:37.210Z,3.27
2023-01-15T10:24:56.749Z,3.67
2023-01-15T10:30:06.990Z,4.20
2023-01-15T10:35:42.305Z,4.23
2023-01-15T10:40:54.223Z,1.53
2023-01-15T10:46:01.845Z,0.50
2023-01-15T10:51:19.145Z,0.30
2023-01-15T10:56:34.317Z,0.40
2023-01-15T11:01:40.770Z,0.33
2023-01-15T11:06:44.272Z,0.90
2023-01-15T11:12:00.271Z,0.53
2023-01-15T11:17:10.001Z,0.80
2023-01-15T11:22:19.531Z,0.80
2023-01-15T11:27:30.892Z,0.83
2023-01-15T11:32:39.157Z,0.80
2023-01-15T11:37:42.608Z,0.73
2023-01-15T11:43:08.987Z,0.97
2023-01-15T11:48:42.497Z,0.70
2023-01-15T11:53:50.199Z,0.80
2023-01-15T11:59:09.678Z,0.80
2023-01-15T12:11:26.790Z,1.80
2023-01-15T12:16:42.071Z,3.40
2023-01-15T12:22:06.328Z,2.53
2023-01-15T12:27:15.894Z,2.70
2023-01-15T12:32:24.773Z,2.63
2023-01-15T12:37:35.202Z,2.47
2023-01-15T12:42:57.500Z,2.60
2023-01-15T12:48:21.429Z,3.17
2023-01-15T12:53:50.663Z,3.50
2023-01-15T12:59:13.614Z,2.20
2023-01-15T13:04:41.970Z,2.90
2023-01-15T13:09:46.810Z,3.10
2023-01-15T13:14:51.415Z,2.80
2023-01-15T13:20:21.594Z,3.33
2023-01-15T13:26:03.527Z,2.13
2023-01-15T13:31:34.797Z,1.23
2023-01-15T13:36:45.713Z,0.80
2023-01-15T13:42:13.866Z,1.00
2023-01-15T13:47:25.666Z,0.67
2023-01-15T13:52:33.633Z,0.97
2023-01-15T13:57:40.813Z,3.20
2023-01-15T14:02:54.686Z,2.17
2023-01-15T14:07:59.873Z,1.07
2023-01-15T14:13:22.612Z,1.17
2023-01-15T14:18:38.499Z,1.33
2023-01-15T14:24:00.807Z,0.80
2023-01-15T14:29:53.748Z,2.13
2023-01-15T14:35:01.927Z,3.63
2023-01-15T14:40:27.861Z,2.57
2023-01-15T14:45:39.483Z,2.87
2023-01-15T14:50:57.931Z,3.03
2023-01-15T14:56:26.610Z,3.50
2023-01-15T15:01:54.796Z,7.70
2023-01-15T15:06:59.907Z,5.80
2023-01-15T15:12:21.144Z,1.80
2023-01-15T15:17:44.854Z,1.60
2023-01-15T15:22:55.081Z,1.63
2023-01-15T15:28:11.986Z,2.13
2023-01-15T15:33:32.951Z,2.00
2023-01-15T15:38:40.898Z,2.10
2023-01-15T15:44:16.425Z,2.83
2023-01-15T15:49:20.955Z,2.97
2023-01-15T15:54:31.733Z,3.30
2023-01-15T15:59:40.345Z,2.30
2023-01-15T16:04:56.194Z,5.57
2023-01-15T16:10:03.596Z,3.60
2023-01-15T16:15:09.431Z,3.27
2023-01-15T16:20:19.634Z,4.17
2023-01-15T16:25:42.223Z,4.20
2023-01-15T16:30:46.561Z,4.13
2023-01-15T16:35:59.076Z,4.00
2023-01-15T16:41:04.109Z,3.80
2023-01-15T16:46:20.567Z,3.97
2023-01-15T16:51:43.163Z,3.73
2023-01-15T16:56:55.179Z,3.57
2023-01-15T17:02:17.911Z,3.43
2023-01-15T17:07:41.368Z,3.03
2023-01-15T17:12:45.707Z,3.33
2023-01-15T17:17:56.003Z,3.27
2023-01-15T17:23:17.561Z,3.47
2023-01-15T17:28:36.131Z,3.57
2023-01-15T17:33:41.140Z,2.33
2023-01-15T17:38:46.832Z,3.23
2023-01-15T17:43:52.157Z,3.53
2023-01-15T17:48:57.940Z,3.00
2023-01-15T17:54:04.369Z,3.00
2023-01-15T17:59:35.087Z,3.10
2023-01-15T18:05:14.987Z,2.63
2023-01-15T18:10:29.342Z,3.20
2023-01-15T18:15:47.871Z,3.50
2023-01-15T18:21:06.781Z,2.90
2023-01-15T18:26:13.070Z,2.33
2023-01-15T18:31:19.007Z,3.50
2023-01-15T18:36:27.249Z,3.70
2023-01-15T18:41:33.702Z,3.00
2023-01-15T18:46:44.532Z,2.60
2023-01-15T18:52:14.196Z,2.17
2023-01-15T18:57:20.793Z,2.73
2023-01-15T19:02:26.808Z,2.87
2023-01-15T19:07:34.255Z,3.30
2023-01-15T19:12:42.190Z,3.07
2023-01-15T19:18:08.467Z,2.33
2023-01-15T19:23:15.438Z,2.60
2023-01-15T19:28:23.269Z,2.80
2023-01-15T19:33:29.929Z,2.83
2023-01-15T19:38:47.700Z,2.63
2023-01-15T19:44:13.537Z,2.27
2023-01-15T19:49:45.808Z,1.87
2023-01-15T19:55:01.829Z,3.63
2023-01-15T20:00:14.265Z,3.17
2023-01-15T20:05:20.499Z,2.03
2023-01-15T20:10:28.608Z,2.83
2023-01-15T20:15:34.370Z,2.40
2023-01-15T20:20:41.361Z,2.30
2023-01-15T20:25:51.064Z,2.60
2023-01-15T20:30:57.619Z,2.17
2023-01-15T20:36:06.309Z,2.50
2023-01-15T20:41:36.927Z,2.27
2023-01-15T20:46:41.400Z,2.63
2023-01-15T20:51:50.848Z,2.53
2023-01-15T20:56:58.723Z,2.03
2023-01-15T21:02:03.248Z,2.07
2023-01-15T21:07:07.591Z,2.20
2023-01-15T21:12:12.228Z,2.10
2023-01-15T21:17:16.148Z,1.53
2023-01-15T21:22:24.835Z,1.87
2023-01-15T21:27:30.340Z,1.73
2023-01-15T21:32:35.448Z,1.27
2023-01-15T21:37:40.128Z,1.90
2023-01-15T21:43:02.925Z,1.63
2023-01-15T21:48:07.965Z,1.27
2023-01-15T21:53:11.988Z,1.27
2023-01-15T21:58:16.029Z,2.13
2023-01-15T22:03:19.834Z,1.30
2023-01-15T22:08:23.110Z,1.37
2023-01-15T22:13:26.142Z,1.57
2023-01-15T22:18:30.100Z,1.00
2023-01-15T22:23:34.780Z,1.10
2023-01-15T22:28:38.499Z,1.20
2023-01-15T22:33:41.843Z,1.73
2023-01-15T22:38:46.692Z,1.17
2023-01-15T22:43:50.118Z,1.33
2023-01-15T22:48:53.959Z,1.47
2023-01-15T22:53:58.290Z,1.20
2023-01-15T22:59:02.426Z,1.30
2023-01-15T23:04:19.596Z,0.93
2023-01-15T23:09:24.491Z,1.10
2023-01-15T23:14:28.408Z,1.10
2023-01-15T23:19:32.138Z,1.27
2023-01-15T23:24:35.710Z,1.27
2023-01-15T23:29:39.218Z,1.33
2023-01-15T23:34:42.647Z,1.27
2023-01-15T23:39:46.025Z,0.80
2023-01-15T23:45:08.139Z,0.70
2023-01-15T23:50:11.835Z,1.10
2023-01-15T23:55:15.516Z,1.30
